Time;durP1;ratioP1;P1;durP2;ratioP2;P2;SDS_P1;SDS_P2;PMS_P1;PMS_P2;Temp;Humidity;BMP_temperature;BMP_pressure;BME280_temperature;BME280_humidity;BME280_pressure;Samples;Min_cycle;Max_cycle;Signal;HPM_P1;HPM_P2
2021/07/01 00:00:45;;;;;;;8.93;7.18;;;18.30;95.60;;;;;;5034752;28;20026;-52
2021/07/01 00:03:11;;;;;;;12.48;7.55;;;18.20;95.80;;;;;;5034627;28;20044;-54
2021/07/01 00:05:36;;;;;;;12.20;7.45;;;18.20;95.70;;;;;;5034206;28;20346;-55
2021/07/01 00:08:03;;;;;;;9.18;6.80;;;18.20;95.60;;;;;;5034214;28;20026;-53
2021/07/01 00:10:28;;;;;;;7.68;6.85;;;18.10;96.00;;;;;;5034792;28;20449;-54
2021/07/01 00:12:55;;;;;;;10.23;6.72;;;18.00;95.60;;;;;;5034071;28;20025;-54
2021/07/01 00:15:25;;;;;;;8.02;6.50;;;17.80;96.20;;;;;;5034269;28;20471;-51
2021/07/01 00:17:51;;;;;;;7.03;6.20;;;17.90;95.60;;;;;;5016101;28;20552;-55
2021/07/01 00:20:17;;;;;;;7.38;6.55;;;17.90;95.90;;;;;;5034654;28;20034;-54
2021/07/01 00:22:43;;;;;;;7.65;6.20;;;17.90;95.50;;;;;;5034078;28;20030;-56
2021/07/01 00:25:11;;;;;;;7.00;6.30;;;17.90;95.60;;;;;;5034609;28;20105;-54
2021/07/01 00:27:37;;;;;;;8.18;6.55;;;18.00;95.90;;;;;;5034109;28;20029;-58
2021/07/01 00:30:08;;;;;;;9.82;6.78;;;18.00;95.60;;;;;;5034287;28;20048;-52
2021/07/01 00:32:34;;;;;;;9.05;7.13;;;18.00;95.60;;;;;;5033822;28;20443;-55
2021/07/01 00:34:59;;;;;;;10.68;7.03;;;18.00;95.50;;;;;;5034109;28;20029;-50
2021/07/01 00:37:26;;;;;;;7.95;6.57;;;17.90;95.60;;;;;;5000187;28;20562;-53
2021/07/01 00:39:52;;;;;;;8.10;6.80;;;17.80;95.80;;;;;;5036581;28;20116;-53
2021/07/01 00:42:17;;;;;;;8.98;6.53;;;17.80;95.50;;;;;;5033979;28;20104;-49
2021/07/01 00:44:43;;;;;;;10.90;6.93;;;17.60;95.90;;;;;;5033430;28;20029;-51
2021/07/01 00:47:08;;;;;;;12.45;7.47;;;17.60;95.90;;;;;;5033535;28;20137;-52
2021/07/01 00:49:34;;;;;;;9.32;7.13;;;17.40;96.10;;;;;;5033561;28;20365;-51
2021/07/01 00:51:59;;;;;;;8.20;7.40;;;17.20;96.40;;;;;;5033686;28;20037;-52
2021/07/01 00:54:25;;;;;;;11.13;7.90;;;17.20;96.50;;;;;;5033625;28;20049;-54
2021/07/01 00:56:51;;;;;;;10.05;7.85;;;17.10;96.90;;;;;;5032972;28;20037;-53
2021/07/01 00:59:16;;;;;;;13.57;7.57;;;17.10;96.80;;;;;;5033804;28;20041;-57
2021/07/01 01:01:42;;;;;;;9.85;7.82;;;17.10;97.00;;;;;;5033915;28;20034;-53
2021/07/01 01:04:08;;;;;;;19.10;8.02;;;17.00;97.00;;;;;;5033608;28;20042;-53
2021/07/01 01:06:34;;;;;;;9.02;8.10;;;16.90;97.30;;;;;;5032840;28;20572;-51
2021/07/01 01:09:03;;;;;;;10.98;8.20;;;16.90;97.40;;;;;;5033202;28;20029;-51
2021/07/01 01:11:29;;;;;;;10.43;8.27;;;16.80;97.40;;;;;;5033752;28;20043;-54
2021/07/01 01:13:55;;;;;;;9.57;7.97;;;16.70;97.60;;;;;;5033732;28;20057;-54
2021/07/01 01:16:21;;;;;;;9.05;8.05;;;16.70;97.60;;;;;;5032575;28;20493;-53
2021/07/01 01:18:47;;;;;;;11.02;8.48;;;16.80;97.50;;;;;;5015856;28;20133;-58
2021/07/01 01:21:18;;;;;;;9.50;7.72;;;16.80;97.40;;;;;;5033603;28;20025;-57
2021/07/01 01:23:44;;;;;;;11.35;8.43;;;16.80;97.40;;;;;;5033255;28;20432;-54
2021/07/01 01:26:10;;;;;;;12.27;8.90;;;16.90;97.40;;;;;;5032669;28;20025;-59
2021/07/01 01:28:36;;;;;;;9.70;8.30;;;16.90;97.30;;;;;;5032661;28;20041;-52
2021/07/01 01:31:05;;;;;;;10.35;8.77;;;17.00;97.40;;;;;;5032989;28;20025;-54
2021/07/01 01:33:31;;;;;;;14.15;9.27;;;16.90;97.40;;;;;;5030961;28;20041;-53
2021/07/01 01:35:56;;;;;;;11.13;9.10;;;16.90;97.40;;;;;;5031925;28;20037;-49
2021/07/01 01:38:23;;;;;;;10.07;8.80;;;16.90;97.60;;;;;;5039611;28;20432;-54
2021/07/01 01:40:49;;;;;;;14.52;10.00;;;16.90;97.60;;;;;;5032729;28;20053;-51
2021/07/01 01:43:16;;;;;;;13.90;10.15;;;16.90;97.60;;;;;;5032979;28;20026;-54
2021/07/01 01:45:43;;;;;;;11.88;10.15;;;16.80;97.80;;;;;;5032058;28;20029;-55
2021/07/01 01:48:09;;;;;;;12.10;10.70;;;16.80;97.80;;;;;;5032361;28;20397;-51
2021/07/01 01:50:35;;;;;;;11.70;10.27;;;16.80;97.90;;;;;;5032644;28;20528;-53
2021/07/01 01:53:00;;;;;;;14.80;11.55;;;16.80;98.10;;;;;;5032243;28;20121;-55
2021/07/01 01:55:27;;;;;;;13.90;12.40;;;16.80;97.90;;;;;;5032106;28;20447;-55
2021/07/01 01:57:52;;;;;;;15.63;13.77;;;16.70;98.00;;;;;;5032122;28;20027;-55
2021/07/01 02:00:21;;;;;;;15.18;12.85;;;16.80;97.90;;;;;;5032612;28;20124;-54
2021/07/01 02:02:47;;;;;;;16.95;13.35;;;16.80;98.20;;;;;;5031887;28;20068;-52
2021/07/01 02:05:14;;;;;;;14.60;13.00;;;16.80;98.00;;;;;;5031848;28;20073;-52
2021/07/01 02:07:40;;;;;;;15.32;13.73;;;16.80;97.80;;;;;;5014411;28;20493;-56
2021/07/01 02:10:24;;;;;;;17.73;13.68;;;16.90;98.00;;;;;;5014485;28;20048;-50
2021/07/01 02:12:50;;;;;;;18.70;13.82;;;16.90;97.70;;;;;;5032193;28;20072;-49
2021/07/01 02:15:22;;;;;;;15.48;13.48;;;16.90;97.90;;;;;;5032177;28;20084;-53
2021/07/01 02:17:52;;;;;;;17.02;14.07;;;16.90;97.80;;;;;;5023472;28;20443;-53
2021/07/01 02:20:19;;;;;;;15.63;14.13;;;17.00;97.40;;;;;;5032374;28;20045;-49
2021/07/01 02:22:46;;;;;;;16.48;14.88;;;16.90;97.60;;;;;;5013922;28;20117;-53
2021/07/01 02:25:12;;;;;;;15.98;14.38;;;16.90;97.70;;;;;;5030449;28;20755;-51
2021/07/01 02:27:38;;;;;;;17.08;15.27;;;16.90;97.80;;;;;;5031114;28;20034;-52
2021/07/01 02:30:09;;;;;;;17.42;14.73;;;16.90;97.80;;;;;;5032003;28;20049;-51
2021/07/01 02:32:36;;;;;;;16.35;14.32;;;16.80;98.20;;;;;;4997802;28;20443;-53
2021/07/01 02:35:02;;;;;;;18.98;15.15;;;16.80;98.30;;;;;;5029840;28;20048;-53
2021/07/01 02:37:28;;;;;;;18.38;14.43;;;16.80;98.00;;;;;;5032503;28;20477;-57
2021/07/01 02:39:54;;;;;;;19.60;16.02;;;16.80;98.10;;;;;;5035012;28;20044;-51
2021/07/01 02:42:19;;;;;;;20.95;15.30;;;16.80;98.10;;;;;;5032115;28;20029;-51
2021/07/01 02:44:45;;;;;;;18.92;16.35;;;16.80;98.10;;;;;;5031381;28;20030;-53
2021/07/01 02:47:11;;;;;;;20.95;16.75;;;16.90;98.00;;;;;;5031606;28;20040;-54
2021/07/01 02:49:36;;;;;;;19.40;17.15;;;16.80;98.10;;;;;;5032094;28;20083;-50
2021/07/01 02:52:02;;;;;;;23.52;18.45;;;16.80;98.30;;;;;;5031574;28;20027;-50
2021/07/01 02:54:28;;;;;;;23.63;17.27;;;16.90;98.20;;;;;;5031790;28;20378;-50
2021/07/01 02:56:54;;;;;;;21.30;18.80;;;16.80;98.10;;;;;;5031404;28;20060;-49
2021/07/01 02:59:20;;;;;;;22.20;18.83;;;16.70;98.50;;;;;;5031628;28;20112;-54
2021/07/01 03:01:47;;;;;;;21.40;19.08;;;16.70;98.40;;;;;;5013827;28;20121;-53
2021/07/01 03:04:13;;;;;;;24.20;19.25;;;16.80;98.30;;;;;;5036001;28;20088;-54
2021/07/01 03:06:39;;;;;;;24.55;20.75;;;16.80;98.50;;;;;;5035323;28;20441;-52
2021/07/01 03:09:06;;;;;;;35.40;21.17;;;16.90;98.10;;;;;;5036195;28;20029;-51
2021/07/01 03:11:32;;;;;;;28.70;22.27;;;16.90;98.10;;;;;;5035339;28;20071;-56
2021/07/01 03:13:58;;;;;;;26.75;21.10;;;16.80;98.30;;;;;;5034958;28;20033;-56
2021/07/01 03:16:23;;;;;;;23.92;20.50;;;16.80;98.10;;;;;;5035023;28;20025;-59
2021/07/01 03:18:50;;;;;;;24.23;21.35;;;16.90;98.00;;;;;;5036140;28;20513;-55
2021/07/01 03:21:17;;;;;;;27.70;21.75;;;16.80;98.00;;;;;;5035741;28;20061;-57
2021/07/01 03:23:43;;;;;;;26.67;22.00;;;16.60;98.10;;;;;;5017706;28;20029;-53
2021/07/01 03:26:10;;;;;;;25.55;21.27;;;16.60;98.40;;;;;;5034953;28;20037;-58
2021/07/01 03:28:37;;;;;;;24.45;20.85;;;16.60;98.10;;;;;;5034989;28;20038;-57
2021/07/01 03:31:06;;;;;;;23.73;21.30;;;16.70;97.80;;;;;;5017915;28;20569;-52
2021/07/01 03:33:32;;;;;;;22.58;19.95;;;16.80;97.70;;;;;;5035879;28;20017;-58
2021/07/01 03:35:59;;;;;;;24.85;21.55;;;16.80;97.60;;;;;;5034372;28;20063;-59
2021/07/01 03:38:25;;;;;;;25.52;21.42;;;16.70;97.60;;;;;;5040258;28;20540;-55
2021/07/01 03:40:51;;;;;;;23.67;21.15;;;16.70;97.40;;;;;;5034932;28;20116;-52
2021/07/01 03:43:17;;;;;;;25.08;20.75;;;16.80;97.20;;;;;;5034710;28;20492;-51
2021/07/01 03:45:43;;;;;;;23.45;20.83;;;16.80;97.40;;;;;;5034267;28;20395;-52
2021/07/01 03:48:09;;;;;;;23.55;21.02;;;16.80;97.20;;;;;;5034208;28;20034;-57
2021/07/01 03:50:34;;;;;;;25.98;22.23;;;16.70;97.40;;;;;;5034881;28;20078;-56
2021/07/01 03:53:00;;;;;;;23.92;20.95;;;16.70;97.60;;;;;;5034465;28;20033;-55
2021/07/01 03:55:25;;;;;;;27.58;21.75;;;16.70;97.60;;;;;;5034165;28;20025;-52
2021/07/01 03:57:51;;;;;;;30.40;22.92;;;16.60;97.80;;;;;;5034502;28;20078;-57
2021/07/01 04:00:19;;;;;;;26.20;22.50;;;16.60;97.80;;;;;;5034548;28;20026;-58
2021/07/01 04:02:45;;;;;;;26.30;21.70;;;16.70;97.80;;;;;;5017005;28;20484;-60
2021/07/01 04:05:11;;;;;;;24.98;20.98;;;16.70;97.50;;;;;;5034549;28;20033;-59
2021/07/01 04:07:37;;;;;;;24.85;21.13;;;16.80;97.30;;;;;;5016203;28;20026;-59
2021/07/01 04:10:09;;;;;;;25.40;20.27;;;16.80;97.20;;;;;;5034076;28;20033;-59
2021/07/01 04:12:35;;;;;;;27.55;20.33;;;16.80;97.20;;;;;;5033954;28;20037;-60
2021/07/01 04:15:03;;;;;;;27.63;21.67;;;16.90;97.20;;;;;;5034275;28;20045;-58
2021/07/01 04:17:29;;;;;;;27.33;20.83;;;16.80;97.30;;;;;;5034119;28;20113;-57
2021/07/01 04:19:55;;;;;;;26.33;21.23;;;16.80;97.30;;;;;;5034010;28;20068;-59
2021/07/01 04:22:20;;;;;;;26.30;20.00;;;16.80;97.50;;;;;;5034308;28;20037;-60
2021/07/01 04:24:46;;;;;;;25.08;21.58;;;16.80;97.70;;;;;;5034103;28;20120;-59
2021/07/01 04:27:12;;;;;;;25.92;20.95;;;16.80;97.80;;;;;;5033729;28;20076;-59
2021/07/01 04:29:37;;;;;;;25.15;21.75;;;16.70;98.00;;;;;;5033712;28;20047;-57
2021/07/01 04:32:03;;;;;;;24.30;19.30;;;16.70;97.90;;;;;;5034330;28;20648;-59
2021/07/01 04:34:29;;;;;;;23.65;19.67;;;16.80;97.70;;;;;;5033866;28;20488;-59
2021/07/01 04:36:54;;;;;;;25.15;19.23;;;16.90;97.40;;;;;;5028570;28;20048;-60
2021/07/01 04:39:20;;;;;;;25.83;20.63;;;16.90;97.30;;;;;;5031530;28;20021;-58
2021/07/01 04:41:46;;;;;;;23.50;18.00;;;17.00;97.40;;;;;;5016831;28;20120;-59
2021/07/01 04:44:11;;;;;;;25.77;19.35;;;17.10;97.30;;;;;;5034547;28;20040;-59
2021/07/01 04:46:37;;;;;;;22.08;18.30;;;17.00;97.30;;;;;;5033404;28;20485;-58
2021/07/01 04:49:03;;;;;;;21.35;19.15;;;17.00;97.20;;;;;;5034473;28;20381;-58
2021/07/01 04:51:29;;;;;;;23.95;18.20;;;17.00;97.20;;;;;;5034216;28;20036;-58
2021/07/01 04:53:55;;;;;;;21.92;18.80;;;17.00;96.90;;;;;;5033970;28;20050;-59
2021/07/01 04:56:20;;;;;;;19.55;17.35;;;17.10;96.80;;;;;;5033978;28;20037;-59
2021/07/01 04:58:46;;;;;;;20.15;16.77;;;17.10;97.20;;;;;;5033802;28;20108;-59
2021/07/01 05:01:11;;;;;;;20.23;17.30;;;17.10;96.80;;;;;;5033698;28;20029;-57
2021/07/01 05:03:37;;;;;;;22.52;17.42;;;17.10;96.90;;;;;;5034016;28;20121;-59
2021/07/01 05:06:03;;;;;;;19.77;16.58;;;16.90;97.10;;;;;;5033323;28;20049;-59
2021/07/01 05:08:29;;;;;;;20.45;16.88;;;16.90;97.30;;;;;;5015603;28;20051;-59
2021/07/01 05:10:55;;;;;;;20.52;15.95;;;17.10;97.00;;;;;;5033272;28;20052;-58
2021/07/01 05:13:20;;;;;;;18.20;16.25;;;17.10;96.90;;;;;;5033538;28;20432;-59
2021/07/01 05:15:46;;;;;;;17.42;15.52;;;17.10;96.90;;;;;;5032985;28;20116;-58
2021/07/01 05:18:12;;;;;;;19.08;15.70;;;17.00;97.10;;;;;;5032879;28;20097;-60
2021/07/01 05:20:37;;;;;;;18.92;15.55;;;17.00;97.10;;;;;;5033739;28;20053;-59
2021/07/01 05:23:03;;;;;;;22.08;15.50;;;17.00;97.00;;;;;;5033802;28;20029;-57
2021/07/01 05:25:29;;;;;;;21.33;14.32;;;17.10;96.80;;;;;;5003449;28;20079;-58
2021/07/01 05:27:55;;;;;;;17.05;14.85;;;17.00;96.90;;;;;;5032746;28;20044;-59
2021/07/01 05:30:20;;;;;;;16.40;12.90;;;17.10;96.80;;;;;;5033777;28;20029;-59
2021/07/01 05:32:46;;;;;;;13.57;10.95;;;17.00;96.50;;;;;;5033733;28;20029;-59
2021/07/01 05:35:12;;;;;;;13.77;9.27;;;17.00;96.40;;;;;;5033356;28;20056;-60
2021/07/01 05:37:37;;;;;;;11.13;8.73;;;16.90;96.40;;;;;;5032759;28;20083;-59
2021/07/01 05:40:04;;;;;;;21.55;9.27;;;17.10;96.10;;;;;;5033360;28;20111;-57
2021/07/01 05:42:30;;;;;;;8.05;7.05;;;17.10;95.80;;;;;;5053060;28;20108;-59
2021/07/01 05:44:55;;;;;;;10.50;8.15;;;16.90;96.00;;;;;;5035321;28;20232;-59
2021/07/01 05:47:21;;;;;;;9.60;7.40;;;16.90;96.10;;;;;;5053090;28;20036;-58
2021/07/01 05:49:46;;;;;;;10.75;6.43;;;16.80;96.40;;;;;;5052923;28;20078;-59
2021/07/01 05:52:14;;;;;;;13.80;7.63;;;16.90;96.30;;;;;;5053152;28;20103;-59
2021/07/01 05:54:53;;;;;;;9.57;6.95;;;16.90;96.00;;;;;;5032523;28;20041;-59
2021/07/01 05:57:19;;;;;;;11.00;7.22;;;17.00;95.60;;;;;;5033098;28;20117;-58
2021/07/01 05:59:44;;;;;;;9.52;6.70;;;16.90;95.40;;;;;;5033506;28;20411;-58
2021/07/01 06:02:10;;;;;;;9.65;7.32;;;16.90;95.30;;;;;;5000287;28;20045;-58
2021/07/01 06:04:35;;;;;;;10.05;7.50;;;17.00;95.10;;;;;;5027798;28;20037;-59
2021/07/01 06:07:01;;;;;;;10.63;7.50;;;17.00;95.20;;;;;;5031382;28;20050;-58
2021/07/01 06:09:28;;;;;;;10.90;6.85;;;16.90;95.00;;;;;;5032507;28;20049;-58
2021/07/01 06:11:59;;;;;;;9.27;8.05;;;16.90;95.10;;;;;;5032239;28;20044;-59
2021/07/01 06:14:26;;;;;;;9.93;6.82;;;16.90;94.80;;;;;;5032897;28;20112;-59
2021/07/01 06:16:54;;;;;;;9.38;6.75;;;16.70;94.80;;;;;;5031146;28;20087;-59
2021/07/01 06:19:21;;;;;;;7.15;6.30;;;16.70;94.40;;;;;;5032383;28;20053;-59
2021/07/01 06:21:49;;;;;;;7.40;6.65;;;16.90;94.60;;;;;;5032357;28;20037;-59
2021/07/01 06:24:15;;;;;;;7.78;6.55;;;16.90;94.50;;;;;;5029569;28;20056;-59
2021/07/01 06:26:42;;;;;;;8.07;6.75;;;17.00;94.30;;;;;;5033843;28;20029;-60
2021/07/01 06:29:08;;;;;;;9.63;7.03;;;17.20;94.40;;;;;;5031780;28;20037;-57
2021/07/01 06:31:35;;;;;;;9.10;7.38;;;16.90;94.60;;;;;;5031674;28;20029;-59
2021/07/01 06:34:01;;;;;;;9.35;6.57;;;16.90;94.40;;;;;;5025176;28;20042;-59
2021/07/01 06:36:28;;;;;;;10.35;7.25;;;17.00;94.10;;;;;;5020961;28;20045;-59
2021/07/01 06:38:57;;;;;;;8.85;6.97;;;17.00;93.90;;;;;;5015101;28;20025;-59
2021/07/01 06:41:25;;;;;;;7.57;6.78;;;17.20;94.00;;;;;;5031082;28;20030;-59
2021/07/01 06:43:53;;;;;;;7.03;6.30;;;17.10;93.80;;;;;;5030574;28;20075;-59
2021/07/01 06:46:21;;;;;;;7.85;6.18;;;17.20;93.50;;;;;;5031058;28;20493;-58
2021/07/01 06:48:48;;;;;;;7.10;6.38;;;17.20;93.40;;;;;;5014786;28;20033;-59
2021/07/01 06:51:15;;;;;;;8.80;6.35;;;17.20;93.20;;;;;;5019495;28;20092;-59
2021/07/01 06:53:43;;;;;;;11.57;6.82;;;17.10;93.60;;;;;;5031940;28;20045;-59
2021/07/01 06:56:10;;;;;;;10.45;6.72;;;17.10;93.50;;;;;;5025085;28;20026;-56
2021/07/01 06:58:37;;;;;;;11.30;6.85;;;17.10;93.60;;;;;;5031207;28;20025;-59
2021/07/01 07:01:03;;;;;;;10.27;6.50;;;17.10;93.40;;;;;;5028840;28;20588;-59
2021/07/01 07:03:29;;;;;;;7.75;6.18;;;17.20;93.40;;;;;;5031976;28;20021;-58
2021/07/01 07:05:57;;;;;;;8.20;6.10;;;17.20;93.60;;;;;;5030529;28;20053;-60
2021/07/01 07:08:23;;;;;;;8.80;6.53;;;17.30;93.20;;;;;;5014084;28;20520;-59
2021/07/01 07:10:49;;;;;;;11.55;6.47;;;17.20;93.20;;;;;;5031675;28;20025;-58
2021/07/01 07:13:15;;;;;;;8.27;6.32;;;17.20;93.40;;;;;;5013197;28;20034;-59
2021/07/01 07:15:43;;;;;;;12.30;7.00;;;17.30;92.90;;;;;;5017255;28;20042;-60
2021/07/01 07:18:20;;;;;;;8.20;6.40;;;17.30;93.20;;;;;;5010741;28;20026;-59
2021/07/01 07:20:52;;;;;;;8.25;6.22;;;17.40;92.80;;;;;;5010685;28;20033;-60
2021/07/01 07:23:25;;;;;;;6.88;5.07;;;17.60;92.40;;;;;;5023811;28;20037;-58
2021/07/01 07:25:54;;;;;;;8.32;6.30;;;17.60;92.10;;;;;;5032151;28;20448;-58
2021/07/01 07:28:23;;;;;;;9.35;5.30;;;17.30;92.60;;;;;;5031042;28;20048;-56
2021/07/01 07:30:52;;;;;;;5.93;5.25;;;17.30;92.50;;;;;;5031907;28;20100;-59
2021/07/01 07:33:21;;;;;;;7.97;5.55;;;17.40;92.40;;;;;;5032956;28;20101;-60
2021/07/01 07:35:47;;;;;;;7.55;5.75;;;17.50;92.70;;;;;;5032997;28;20018;-59
2021/07/01 07:38:13;;;;;;;10.15;5.03;;;17.60;92.20;;;;;;5013758;28;21565;-58
2021/07/01 07:40:39;;;;;;;8.45;5.18;;;17.70;91.90;;;;;;5051782;28;20086;-57
2021/07/01 07:43:08;;;;;;;7.07;4.88;;;17.60;91.80;;;;;;5036807;28;20037;-56
2021/07/01 07:45:34;;;;;;;6.65;5.18;;;17.70;91.70;;;;;;5030480;28;20046;-57
2021/07/01 07:48:00;;;;;;;8.48;5.10;;;17.60;91.60;;;;;;5032414;28;20029;-56
2021/07/01 07:50:25;;;;;;;5.75;4.97;;;17.40;91.90;;;;;;5035439;28;20057;-57
2021/07/01 07:52:54;;;;;;;6.13;4.72;;;17.30;92.20;;;;;;5030763;28;20507;-59
2021/07/01 07:55:22;;;;;;;7.57;4.68;;;17.40;92.00;;;;;;5023166;28;20609;-59
2021/07/01 07:57:55;;;;;;;11.40;4.95;;;17.40;92.30;;;;;;5033483;28;20532;-57
2021/07/01 08:00:21;;;;;;;8.52;4.70;;;17.30;92.10;;;;;;5025275;28;20040;-58
2021/07/01 08:02:54;;;;;;;7.07;4.70;;;17.20;91.90;;;;;;5026938;28;20025;-58
2021/07/01 08:05:27;;;;;;;5.53;4.00;;;17.20;91.80;;;;;;5026303;28;20491;-59
2021/07/01 08:07:55;;;;;;;5.63;4.70;;;17.00;92.10;;;;;;5032304;28;20469;-57
2021/07/01 08:10:27;;;;;;;7.05;4.63;;;17.10;92.20;;;;;;5034521;28;20029;-57
2021/07/01 08:13:02;;;;;;;7.55;4.07;;;17.20;92.10;;;;;;5034477;28;20030;-58
2021/07/01 08:15:28;;;;;;;5.60;4.35;;;17.30;91.60;;;;;;5034748;28;20163;-59
2021/07/01 08:17:55;;;;;;;5.80;4.50;;;17.30;91.60;;;;;;5034388;28;20120;-59
2021/07/01 08:20:22;;;;;;;7.07;4.43;;;17.20;91.90;;;;;;5034148;28;20605;-61
2021/07/01 08:22:50;;;;;;;7.00;4.60;;;17.40;92.10;;;;;;5034605;28;20509;-59
2021/07/01 08:25:16;;;;;;;6.13;4.72;;;17.50;92.00;;;;;;5034369;28;20135;-58
2021/07/01 08:27:44;;;;;;;5.82;4.57;;;17.50;91.50;;;;;;5034641;28;20029;-58
2021/07/01 08:30:12;;;;;;;6.38;4.80;;;17.60;91.40;;;;;;5033568;28;20088;-60
2021/07/01 08:32:39;;;;;;;6.05;4.63;;;17.70;91.30;;;;;;5000156;28;20124;-59
2021/07/01 08:35:06;;;;;;;7.88;4.38;;;17.70;91.10;;;;;;5013104;28;20109;-59
2021/07/01 08:37:33;;;;;;;5.05;4.03;;;17.60;91.10;;;;;;5032156;28;20109;-57
2021/07/01 08:40:00;;;;;;;6.95;4.05;;;17.50;90.80;;;;;;5036849;28;20037;-55
2021/07/01 08:42:32;;;;;;;6.38;3.95;;;17.40;91.20;;;;;;5034323;28;20037;-58
2021/07/01 08:45:04;;;;;;;5.00;4.20;;;17.40;91.10;;;;;;5034283;28;20104;-60
2021/07/01 08:47:32;;;;;;;4.85;3.90;;;17.40;91.10;;;;;;5034641;28;20021;-57
2021/07/01 08:50:00;;;;;;;6.45;4.03;;;17.50;91.20;;;;;;5016178;28;20040;-58
2021/07/01 08:52:33;;;;;;;7.18;3.85;;;17.40;91.40;;;;;;5034391;28;20037;-59
2021/07/01 08:55:06;;;;;;;5.72;3.88;;;17.60;91.20;;;;;;5016482;28;20112;-56
2021/07/01 08:57:37;;;;;;;6.07;3.70;;;17.70;91.10;;;;;;5034041;28;20030;-58
2021/07/01 09:00:12;;;;;;;4.47;3.30;;;17.70;90.80;;;;;;5033737;28;20142;-59
2021/07/01 09:02:40;;;;;;;6.38;3.53;;;17.80;90.70;;;;;;5034749;28;20520;-59
2021/07/01 09:05:18;;;;;;;4.10;3.10;;;18.10;90.40;;;;;;5033696;28;20042;-60
2021/07/01 09:07:52;;;;;;;4.35;3.53;;;17.70;90.60;;;;;;5021349;28;20508;-59
2021/07/01 09:10:18;;;;;;;4.70;3.72;;;17.70;91.00;;;;;;5016590;28;20492;-59
2021/07/01 09:12:55;;;;;;;4.50;3.50;;;17.80;90.40;;;;;;5033614;28;20022;-58
2021/07/01 09:15:21;;;;;;;4.32;3.50;;;17.80;90.60;;;;;;5033844;28;20029;-58
2021/07/01 09:17:48;;;;;;;4.72;3.28;;;17.80;90.80;;;;;;5034561;28;20036;-58
2021/07/01 09:20:21;;;;;;;5.03;3.50;;;17.90;90.90;;;;;;5033602;28;20038;-59
2021/07/01 09:22:53;;;;;;;4.68;3.33;;;18.00;90.90;;;;;;5033321;28;20025;-59
2021/07/01 09:25:20;;;;;;;3.83;3.30;;;18.00;90.70;;;;;;5036991;28;20021;-57
2021/07/01 09:27:50;;;;;;;3.30;3.00;;;18.00;90.40;;;;;;5035059;28;20029;-58
2021/07/01 09:30:17;;;;;;;3.75;3.30;;;18.00;90.10;;;;;;5016772;28;20029;-59
2021/07/01 09:32:44;;;;;;;5.88;3.90;;;17.80;90.50;;;;;;5033863;28;20018;-59
2021/07/01 09:35:12;;;;;;;5.20;3.40;;;17.90;90.70;;;;;;5032845;28;20485;-59
2021/07/01 09:37:43;;;;;;;3.88;3.00;;;17.90;90.70;;;;;;5033267;28;20037;-59
2021/07/01 09:40:18;;;;;;;3.65;3.15;;;18.00;90.60;;;;;;5034444;28;20025;-59
2021/07/01 09:42:50;;;;;;;4.28;3.20;;;18.10;90.40;;;;;;5033204;28;20548;-59
2021/07/01 09:45:19;;;;;;;3.85;2.83;;;17.80;90.30;;;;;;5032679;28;20068;-60
2021/07/01 09:47:46;;;;;;;3.72;2.53;;;17.70;90.50;;;;;;5015444;28;20057;-60
2021/07/01 09:50:12;;;;;;;4.30;2.90;;;17.70;90.60;;;;;;5032983;28;20025;-60
2021/07/01 09:52:43;;;;;;;3.50;2.97;;;17.60;90.70;;;;;;5033280;28;20030;-59
2021/07/01 09:55:10;;;;;;;4.32;2.97;;;17.70;90.90;;;;;;5033199;28;20029;-58
2021/07/01 09:57:39;;;;;;;3.85;3.10;;;17.60;91.00;;;;;;5015046;28;20094;-59
2021/07/01 10:00:09;;;;;;;4.57;3.15;;;17.80;90.90;;;;;;5032279;28;20452;-59
2021/07/01 10:02:36;;;;;;;5.95;3.33;;;17.90;90.90;;;;;;5017540;28;20029;-59
2021/07/01 10:05:08;;;;;;;4.25;3.65;;;17.90;90.90;;;;;;5038822;28;20057;-58
2021/07/01 10:07:34;;;;;;;3.42;3.05;;;17.90;91.00;;;;;;5018809;28;20033;-60
2021/07/01 10:10:11;;;;;;;9.75;4.07;;;17.90;90.50;;;;;;5025436;28;20428;-59
2021/07/01 10:12:50;;;;;;;4.53;2.88;;;17.80;90.80;;;;;;5032367;28;20664;-60
2021/07/01 10:15:29;;;;;;;3.72;3.15;;;17.80;90.50;;;;;;5031310;28;20109;-58
2021/07/01 10:18:09;;;;;;;4.82;3.00;;;17.80;90.70;;;;;;5029110;28;20091;-60
2021/07/01 10:20:40;;;;;;;3.92;3.13;;;17.60;90.70;;;;;;5031629;28;20080;-60
2021/07/01 10:23:20;;;;;;;2.80;2.50;;;17.80;90.50;;;;;;5031980;28;20045;-60
2021/07/01 10:25:47;;;;;;;5.22;3.80;;;17.60;90.50;;;;;;5031246;28;20124;-59
2021/07/01 10:28:16;;;;;;;3.17;2.80;;;17.70;90.80;;;;;;5032369;28;20045;-58
2021/07/01 10:30:42;;;;;;;3.30;2.90;;;17.50;90.90;;;;;;5031693;28;20041;-60
2021/07/01 10:33:28;;;;;;;4.38;3.10;;;17.50;91.00;;;;;;5032888;28;20025;-59
2021/07/01 10:35:57;;;;;;;4.28;3.08;;;17.70;91.30;;;;;;5014608;28;20095;-60
2021/07/01 10:38:22;;;;;;;4.07;3.20;;;17.70;90.30;;;;;;5023367;28;20064;-60
2021/07/01 10:40:50;;;;;;;4.85;3.40;;;17.50;90.80;;;;;;5012206;28;20061;-59
2021/07/01 10:43:19;;;;;;;8.85;4.53;;;17.40;90.80;;;;;;5031609;28;20459;-61
2021/07/01 10:45:55;;;;;;;3.42;3.13;;;17.50;90.90;;;;;;5031613;28;20060;-58
2021/07/01 10:48:21;;;;;;;3.90;3.30;;;17.40;90.60;;;;;;5032962;28;20025;-61
2021/07/01 10:50:49;;;;;;;4.93;3.67;;;17.40;90.90;;;;;;5014285;28;20029;-59
2021/07/01 10:53:32;;;;;;;4.40;3.53;;;17.50;91.00;;;;;;5031501;28;20033;-61
2021/07/01 10:56:09;;;;;;;3.80;3.10;;;17.50;90.80;;;;;;5031915;28;20033;-60
2021/07/01 10:58:36;;;;;;;4.75;3.28;;;17.40;90.80;;;;;;5031908;28;20088;-59
2021/07/01 11:01:03;;;;;;;4.00;3.53;;;17.60;90.70;;;;;;5032187;28;20034;-66
2021/07/01 11:03:31;;;;;;;4.00;3.42;;;17.60;90.80;;;;;;5027814;28;20445;-61
2021/07/01 11:05:59;;;;;;;4.65;3.05;;;17.50;91.20;;;;;;5007378;28;20057;-60
2021/07/01 11:08:29;;;;;;;5.95;3.53;;;17.60;90.70;;;;;;5027715;28;20068;-59
2021/07/01 11:10:56;;;;;;;5.00;3.75;;;17.40;91.40;;;;;;5029253;28;20033;-59
2021/07/01 11:13:24;;;;;;;4.35;3.25;;;17.50;91.10;;;;;;5031718;28;20033;-61
2021/07/01 11:16:10;;;;;;;4.25;3.83;;;17.50;91.20;;;;;;5013725;28;20057;-61
2021/07/01 11:18:38;;;;;;;5.40;3.45;;;17.80;91.20;;;;;;5021483;28;20108;-59
2021/07/01 11:21:20;;;;;;;5.25;3.20;;;17.70;90.90;;;;;;5030821;28;20095;-60
2021/07/01 11:23:51;;;;;;;6.43;3.50;;;17.70;91.10;;;;;;5032112;28;20397;-60
2021/07/01 11:26:27;;;;;;;4.35;3.22;;;17.80;91.00;;;;;;5033008;28;20044;-59
2021/07/01 11:28:53;;;;;;;3.40;3.10;;;18.00;90.50;;;;;;5033105;28;20039;-59
2021/07/01 11:31:23;;;;;;;3.50;3.00;;;18.00;90.40;;;;;;5023605;28;20033;-59
2021/07/01 11:33:51;;;;;;;4.32;3.70;;;17.90;90.40;;;;;;5035989;28;20094;-59
2021/07/01 11:36:18;;;;;;;4.28;3.03;;;17.70;90.50;;;;;;5034003;28;20034;-59
2021/07/01 11:38:47;;;;;;;5.10;3.00;;;17.80;90.70;;;;;;5028194;28;20564;-57
2021/07/01 11:41:14;;;;;;;3.10;2.80;;;17.80;90.50;;;;;;5035881;28;20041;-59
2021/07/01 11:43:41;;;;;;;4.07;3.17;;;17.70;90.90;;;;;;5034865;28;20049;-57
2021/07/01 11:46:07;;;;;;;4.18;3.78;;;17.80;90.80;;;;;;5017625;28;20111;-58
2021/07/01 11:48:34;;;;;;;5.35;3.50;;;17.90;90.70;;;;;;5035128;28;20034;-59
2021/07/01 11:51:02;;;;;;;5.78;3.60;;;17.90;90.60;;;;;;5034997;28;20405;-57
2021/07/01 11:53:29;;;;;;;3.50;3.20;;;18.00;91.10;;;;;;5017386;28;20061;-58
2021/07/01 11:55:59;;;;;;;6.70;3.50;;;18.00;90.90;;;;;;5030987;28;20442;-60
2021/07/01 11:58:25;;;;;;;3.70;3.30;;;18.30;90.40;;;;;;5027082;28;20581;-59
2021/07/01 12:00:52;;;;;;;4.85;3.35;;;18.50;90.40;;;;;;5034456;28;20469;-59
2021/07/01 12:03:19;;;;;;;5.68;3.65;;;18.60;90.10;;;;;;5034381;28;20029;-59
2021/07/01 12:05:50;;;;;;;4.15;3.30;;;18.50;90.10;;;;;;5026330;28;20042;-60
2021/07/01 12:08:19;;;;;;;3.70;3.17;;;18.40;90.20;;;;;;5021188;28;20030;-60
2021/07/01 12:10:45;;;;;;;5.57;3.45;;;18.20;90.30;;;;;;5013683;28;20026;-60
2021/07/01 12:13:33;;;;;;;3.25;2.88;;;18.40;90.40;;;;;;5013546;28;20026;-57
2021/07/01 12:16:10;;;;;;;4.10;3.13;;;18.40;89.30;;;;;;5027261;28;20022;-61
2021/07/01 12:18:44;;;;;;;5.30;3.10;;;18.30;90.10;;;;;;5033881;28;20037;-60
2021/07/01 12:21:15;;;;;;;3.88;2.85;;;18.10;90.40;;;;;;5031661;28;20048;-60
2021/07/01 12:23:47;;;;;;;3.75;2.85;;;18.10;90.30;;;;;;5034368;28;20029;-59
2021/07/01 12:26:36;;;;;;;3.92;3.17;;;18.50;90.20;;;;;;5035081;28;20030;-61
2021/07/01 12:29:36;;;;;;;3.85;2.80;;;18.50;90.10;;;;;;5033722;28;20140;-61
2021/07/01 12:32:28;;;;;;;3.50;3.20;;;18.50;89.80;;;;;;5032109;28;20045;-60
2021/07/01 12:34:54;;;;;;;5.07;3.05;;;18.30;90.40;;;;;;5003856;28;20029;-60
2021/07/01 12:37:20;;;;;;;3.15;2.70;;;18.40;90.20;;;;;;5024856;28;20041;-61
2021/07/01 12:39:49;;;;;;;4.80;2.90;;;18.40;90.10;;;;;;5034067;28;20048;-60
2021/07/01 12:42:15;;;;;;;4.13;2.95;;;18.50;89.90;;;;;;5034599;28;20091;-60
2021/07/01 12:44:43;;;;;;;3.17;2.78;;;18.60;88.50;;;;;;5034322;28;20480;-59